Wetterdaten: Woche 05.06.17 - 11.06.17 (KW23)
Datum Zeit Temp. Aussen Temp. o. S. +5cm Feuchte Auss BlattFeu 1 Luftdruck Regen Sonnenschein Regendauer Solar Windben Empfang
05.06.2017 00:00 13,0 C 11,0 C 9,6 C 77 % 0 lf 1015,8 hPa 0,0 l/m 0,00 h 0,00 h 4 W/m 0,1 km/h (0 Bft) 94,29 %
05.06.2017 01:00 11,7 C 10,2 C 9,3 C 80 % 0 lf 1015,9 hPa 0,0 l/m 0,00 h 0,00 h 3 W/m 0,2 km/h (0 Bft) 95,42 %
05.06.2017 02:00 10,9 C 9,7 C 8,5 C 83 % 1 lf 1015,7 hPa 0,0 l/m 0,00 h 0,00 h 2 W/m 0,1 km/h (0 Bft) 98,55 %
05.06.2017 03:00 10,2 C 9,1 C 8,3 C 85 % 1 lf 1015,4 hPa 0,0 l/m 0,00 h 0,00 h 0 W/m 0,0 km/h (0 Bft) 93,99 %
05.06.2017 04:00 9,9 C 9,5 C 8,9 C 89 % 1 lf 1015,2 hPa 0,0 l/m 0,00 h 0,00 h 0 W/m 0,1 km/h (0 Bft) 95,81 %
05.06.2017 05:00 10,0 C 9,8 C 8,9 C 91 % 1 lf 1015,0 hPa 0,0 l/m 0,00 h 0,00 h 11 W/m 0,1 km/h (0 Bft) 54,40 %
05.06.2017 06:00 10,3 C 11,4 C 10,2 C 92 % 1 lf 1014,9 hPa 0,0 l/m 0,00 h 0,00 h 58 W/m 1,2 km/h (1 Bft) 81,94 %
05.06.2017 07:00 11,6 C 13,8 C 12,4 C 92 % 0 lf 1014,9 hPa 0,0 l/m 0,30 h 0,00 h 140 W/m 5,8 km/h (2 Bft) 96,16 %
05.06.2017 08:00 14,4 C 19,1 C 15,3 C 82 % 0 lf 1014,7 hPa 0,0 l/m 1,00 h 0,00 h 286 W/m 11,6 km/h (2 Bft) 69,79 %
05.06.2017 09:00 18,0 C 24,5 C 18,1 C 65 % 0 lf 1014,6 hPa 0,0 l/m 1,00 h 0,00 h 448 W/m 13,1 km/h (3 Bft) 92,38 %
05.06.2017 10:00 20,1 C 27,6 C 25,5 C 55 % 0 lf 1014,1 hPa 0,0 l/m 1,00 h 0,00 h 591 W/m 14,2 km/h (3 Bft) 97,85 %
05.06.2017 11:00 21,7 C 30,1 C 27,1 C 51 % 0 lf 1013,4 hPa 0,0 l/m 1,00 h 0,00 h 692 W/m 14,0 km/h (3 Bft) 96,40 %
05.06.2017 12:00 22,6 C 29,6 C 27,8 C 50 % 0 lf 1013,0 hPa 0,0 l/m 0,83 h 0,00 h 687 W/m 14,5 km/h (3 Bft) 94,45 %
05.06.2017 13:00 23,4 C 29,3 C 26,2 C 48 % 0 lf 1012,4 hPa 0,0 l/m 0,77 h 0,00 h 746 W/m 13,5 km/h (3 Bft) 97,13 %
05.06.2017 14:00 23,8 C 29,7 C 30,9 C 46 % 0 lf 1011,7 hPa 0,0 l/m 0,87 h 0,00 h 790 W/m 12,6 km/h (3 Bft) 96,23 %
05.06.2017 15:00 23,7 C 26,5 C 28,9 C 45 % 0 lf 1011,1 hPa 0,0 l/m 0,50 h 0,00 h 487 W/m 14,3 km/h (3 Bft) 94,96 %
05.06.2017 16:00 23,8 C 25,4 C 27,9 C 46 % 0 lf 1010,5 hPa 0,0 l/m 0,47 h 0,00 h 460 W/m 14,8 km/h (3 Bft) 97,11 %
05.06.2017 17:00 23,5 C 24,4 C 24,3 C 46 % 0 lf 1009,7 hPa 0,0 l/m 0,80 h 0,00 h 487 W/m 14,7 km/h (3 Bft) 95,29 %
05.06.2017 18:00 23,0 C 23,2 C 21,9 C 45 % 0 lf 1008,9 hPa 0,0 l/m 0,57 h 0,00 h 266 W/m 14,0 km/h (3 Bft) 96,93 %
05.06.2017 19:00 22,4 C 22,7 C 21,8 C 47 % 0 lf 1008,3 hPa 0,0 l/m 0,53 h 0,00 h 199 W/m 14,9 km/h (3 Bft) 93,48 %
05.06.2017 20:00 21,3 C 20,4 C 19,0 C 52 % 0 lf 1007,7 hPa 0,0 l/m 0,00 h 0,00 h 36 W/m 8,1 km/h (2 Bft) 98,12 %
05.06.2017 21:00 19,9 C 18,9 C 16,8 C 56 % 0 lf 1007,1 hPa 0,0 l/m 0,03 h 0,00 h 17 W/m 6,9 km/h (2 Bft) 95,64 %
05.06.2017 22:00 18,4 C 17,0 C 14,7 C 61 % 0 lf 1006,6 hPa 0,0 l/m 0,00 h 0,00 h 0 W/m 5,4 km/h (1 Bft) 94,16 %
05.06.2017 23:00 17,1 C 16,4 C 13,9 C 66 % 0 lf 1005,8 hPa 0,0 l/m 0,00 h 0,00 h 0 W/m 7,0 km/h (2 Bft) 99,71 %
06.06.2017 00:00 16,4 C 15,9 C 13,6 C 68 % 0 lf 1005,1 hPa 0,0 l/m 0,00 h 0,00 h 0 W/m 6,7 km/h (2 Bft) 98,76 %
06.06.2017 01:00 15,6 C 15,1 C 13,2 C 71 % 0 lf 1004,3 hPa 0,0 l/m 0,00 h 0,00 h 0 W/m 11,0 km/h (2 Bft) 94,81 %
06.06.2017 02:00 15,2 C 15,1 C 13,9 C 73 % 0 lf 1003,3 hPa 0,0 l/m 0,00 h 0,00 h 0 W/m 14,8 km/h (3 Bft) 99,85 %
06.06.2017 03:00 15,1 C 15,0 C 13,8 C 74 % 0 lf 1002,1 hPa 0,0 l/m 0,00 h 0,00 h 0 W/m 14,6 km/h (3 Bft) 98,46 %
06.06.2017 04:00 15,2 C 15,2 C 13,9 C 73 % 0 lf 1000,9 hPa 0,0 l/m 0,00 h 0,00 h 0 W/m 18,3 km/h (3 Bft) 96,20 %
06.06.2017 05:00 15,3 C 15,3 C 13,9 C 74 % 0 lf 999,6 hPa 0,0 l/m 0,00 h 0,00 h 12 W/m 18,7 km/h (3 Bft) 82,86 %
06.06.2017 06:00 15,5 C 15,8 C 14,5 C 77 % 0 lf 998,8 hPa 0,0 l/m 0,00 h 0,00 h 34 W/m 17,8 km/h (3 Bft) 68,69 %
06.06.2017 07:00 16,1 C 16,6 C 15,6 C 76 % 1 lf 998,4 hPa 0,0 l/m 0,00 h 0,13 h 60 W/m 18,8 km/h (3 Bft) 66,20 %
06.06.2017 08:00 15,9 C 13,6 C 12,9 C 82 % 15 lf 998,3 hPa 1,2 l/m 0,00 h 1,00 h 56 W/m 9,8 km/h (2 Bft) 66,00 %
06.06.2017 09:00 15,1 C 14,0 C 13,2 C 89 % 10 lf 997,6 hPa 0,2 l/m 0,00 h 1,00 h 101 W/m 16,1 km/h (3 Bft) 78,02 %
06.06.2017 10:00 15,3 C 14,8 C 13,7 C 89 % 1 lf 997,2 hPa 0,0 l/m 0,00 h 0,87 h 150 W/m 21,4 km/h (4 Bft) 97,35 %
06.06.2017 11:00 15,6 C 14,5 C 13,5 C 86 % 10 lf 997,9 hPa 1,4 l/m 0,00 h 0,93 h 169 W/m 32,1 km/h (5 Bft) 97,51 %
06.06.2017 12:00 15,2 C 17,2 C 14,9 C 82 % 2 lf 999,0 hPa 0,0 l/m 0,27 h 0,00 h 390 W/m 28,4 km/h (4 Bft) 93,95 %
06.06.2017 13:00 17,4 C 21,4 C 19,0 C 70 % 0 lf 999,4 hPa 0,0 l/m 0,50 h 0,00 h 566 W/m 39,4 km/h (6 Bft) 96,60 %
06.06.2017 14:00 17,5 C 19,5 C 18,8 C 65 % 0 lf 999,8 hPa 0,0 l/m 0,10 h 0,03 h 313 W/m 40,0 km/h (6 Bft) 98,93 %
06.06.2017 15:00 17,8 C 20,6 C 21,8 C 65 % 2 lf 1000,2 hPa 0,2 l/m 0,60 h 0,07 h 564 W/m 40,0 km/h (6 Bft) 92,90 %
06.06.2017 16:00 18,0 C 19,2 C 22,3 C 59 % 0 lf 1000,9 hPa 0,0 l/m 0,73 h 0,00 h 563 W/m 43,2 km/h (6 Bft) 97,23 %
06.06.2017 17:00 17,5 C 18,0 C 17,3 C 62 % 1 lf 1001,5 hPa 0,0 l/m 0,90 h 0,10 h 495 W/m 38,6 km/h (5 Bft) 96,28 %
06.06.2017 18:00 16,7 C 17,7 C 16,5 C 65 % 0 lf 1002,0 hPa 0,0 l/m 0,47 h 0,00 h 279 W/m 31,5 km/h (5 Bft) 96,30 %
06.06.2017 19:00 16,6 C 17,0 C 15,7 C 63 % 0 lf 1002,3 hPa 0,0 l/m 0,80 h 0,00 h 208 W/m 34,5 km/h (5 Bft) 95,53 %
06.06.2017 20:00 16,1 C 16,0 C 14,4 C 62 % 0 lf 1002,8 hPa 0,0 l/m 0,27 h 0,00 h 68 W/m 36,5 km/h (5 Bft) 95,00 %
06.06.2017 21:00 14,9 C 14,5 C 12,9 C 66 % 0 lf 1003,4 hPa 0,0 l/m 0,00 h 0,00 h 13 W/m 28,1 km/h (4 Bft) 96,47 %
06.06.2017 22:00 14,0 C 13,6 C 12,0 C 69 % 0 lf 1004,1 hPa 0,0 l/m 0,00 h 0,00 h 4 W/m 23,0 km/h (4 Bft) 95,44 %
06.06.2017 23:00 13,3 C 13,1 C 11,7 C 72 % 0 lf 1004,5 hPa 0,0 l/m 0,00 h 0,00 h 5 W/m 29,8 km/h (5 Bft) 94,66 %
07.06.2017 00:00 12,8 C 12,6 C 11,1 C 75 % 0 lf 1004,8 hPa 0,0 l/m 0,00 h 0,00 h 5 W/m 30,7 km/h (5 Bft) 97,21 %
07.06.2017 01:00 12,4 C 12,2 C 10,7 C 77 % 0 lf 1005,2 hPa 0,0 l/m 0,00 h 0,00 h 5 W/m 27,1 km/h (4 Bft) 95,87 %
07.06.2017 02:00 12,3 C 12,2 C 10,9 C 78 % 0 lf 1005,5 hPa 0,0 l/m 0,00 h 0,00 h 5 W/m 30,8 km/h (5 Bft) 94,91 %
07.06.2017 03:00 12,2 C 12,2 C 10,7 C 78 % 0 lf 1005,7 hPa 0,0 l/m 0,00 h 0,03 h 5 W/m 31,4 km/h (5 Bft) 95,52 %
07.06.2017 04:00 12,1 C 12,1 C 10,6 C 80 % 0 lf 1006,0 hPa 0,0 l/m 0,00 h 0,00 h 5 W/m 30,3 km/h (5 Bft) 97,65 %
07.06.2017 05:00 11,9 C 12,0 C 10,6 C 80 % 0 lf 1006,5 hPa 0,0 l/m 0,00 h 0,00 h 10 W/m 32,4 km/h (5 Bft) 95,20 %
07.06.2017 06:00 11,9 C 12,2 C 10,9 C 81 % 0 lf 1006,9 hPa 0,0 l/m 0,03 h 0,00 h 41 W/m 34,1 km/h (5 Bft) 89,41 %
07.06.2017 07:00 12,2 C 13,0 C 11,6 C 80 % 0 lf 1007,1 hPa 0,0 l/m 0,30 h 0,00 h 134 W/m 38,1 km/h (5 Bft) 89,02 %
07.06.2017 08:00 13,0 C 15,6 C 13,0 C 78 % 0 lf 1007,6 hPa 0,0 l/m 0,30 h 0,00 h 216 W/m 37,4 km/h (5 Bft) 91,10 %
07.06.2017 09:00 14,2 C 17,2 C 14,5 C 74 % 0 lf 1008,2 hPa 0,0 l/m 0,43 h 0,00 h 290 W/m 42,3 km/h (6 Bft) 93,31 %
07.06.2017 10:00 15,3 C 19,4 C 18,2 C 70 % 0 lf 1008,6 hPa 0,0 l/m 0,47 h 0,00 h 452 W/m 44,0 km/h (6 Bft) 95,23 %
07.06.2017 11:00 15,5 C 16,6 C 15,9 C 68 % 3 lf 1008,9 hPa 0,0 l/m 0,10 h 0,17 h 249 W/m 43,6 km/h (6 Bft) 96,96 %
07.06.2017 12:00 15,0 C 16,4 C 14,4 C 75 % 7 lf 1009,8 hPa 0,2 l/m 0,07 h 0,37 h 273 W/m 33,3 km/h (5 Bft) 95,94 %
07.06.2017 13:00 15,8 C 19,2 C 16,2 C 78 % 10 lf 1010,5 hPa 0,4 l/m 0,83 h 0,23 h 678 W/m 37,0 km/h (5 Bft) 92,44 %
07.06.2017 14:00 16,3 C 18,3 C 14,8 C 76 % 9 lf 1010,8 hPa 0,6 l/m 0,37 h 0,27 h 399 W/m 36,5 km/h (5 Bft) 97,69 %
07.06.2017 15:00 16,1 C 18,5 C 17,3 C 74 % 2 lf 1011,6 hPa 0,0 l/m 0,37 h 0,23 h 410 W/m 32,8 km/h (5 Bft) 93,54 %
07.06.2017 16:00 16,2 C 17,5 C 17,0 C 71 % 0 lf 1012,4 hPa 0,0 l/m 0,17 h 0,03 h 273 W/m 30,6 km/h (5 Bft) 94,14 %
07.06.2017 17:00 16,8 C 17,9 C 16,8 C 68 % 0 lf 1012,8 hPa 0,0 l/m 0,20 h 0,03 h 223 W/m 28,7 km/h (4 Bft) 98,00 %
07.06.2017 18:00 17,9 C 18,9 C 17,3 C 61 % 0 lf 1013,1 hPa 0,0 l/m 0,43 h 0,03 h 281 W/m 30,0 km/h (5 Bft) 94,98 %
07.06.2017 19:00 17,9 C 18,3 C 16,8 C 59 % 0 lf 1013,6 hPa 0,0 l/m 0,47 h 0,00 h 164 W/m 30,6 km/h (5 Bft) 96,73 %
07.06.2017 20:00 17,3 C 17,2 C 15,4 C 59 % 0 lf 1014,4 hPa 0,0 l/m 0,43 h 0,00 h 80 W/m 33,3 km/h (5 Bft) 96,58 %
07.06.2017 21:00 16,0 C 15,6 C 13,7 C 60 % 0 lf 1015,1 hPa 0,0 l/m 0,00 h 0,00 h 15 W/m 24,1 km/h (4 Bft) 94,82 %
07.06.2017 22:00 14,9 C 14,5 C 12,6 C 62 % 0 lf 1015,6 hPa 0,0 l/m 0,00 h 0,00 h 4 W/m 22,7 km/h (4 Bft) 97,82 %
07.06.2017 23:00 14,6 C 14,2 C 12,4 C 63 % 0 lf 1016,1 hPa 0,0 l/m 0,00 h 0,00 h 0 W/m 18,9 km/h (3 Bft) 96,13 %
08.06.2017 00:00 13,6 C 13,2 C 11,3 C 67 % 0 lf 1016,2 hPa 0,0 l/m 0,00 h 0,00 h 0 W/m 13,6 km/h (3 Bft) 94,24 %
08.06.2017 01:00 13,1 C 12,8 C 11,1 C 72 % 0 lf 1016,2 hPa 0,0 l/m 0,00 h 0,00 h 0 W/m 14,8 km/h (3 Bft) 97,99 %
08.06.2017 02:00 12,8 C 12,7 C 11,0 C 77 % 0 lf 1016,0 hPa 0,0 l/m 0,00 h 0,00 h 0 W/m 14,6 km/h (3 Bft) 97,40 %
08.06.2017 03:00 12,9 C 12,8 C 11,6 C 79 % 0 lf 1016,2 hPa 0,0 l/m 0,00 h 0,20 h 0 W/m 11,2 km/h (2 Bft) 92,85 %
08.06.2017 04:00 13,1 C 12,9 C 11,6 C 81 % 0 lf 1016,4 hPa 0,0 l/m 0,00 h 0,13 h 0 W/m 9,6 km/h (2 Bft) 98,57 %
08.06.2017 05:00 13,1 C 12,8 C 11,2 C 82 % 1 lf 1016,3 hPa 0,0 l/m 0,00 h 0,30 h 7 W/m 3,2 km/h (1 Bft) 96,71 %
08.06.2017 06:00 13,1 C 13,5 C 12,1 C 84 % 0 lf 1015,8 hPa 0,0 l/m 0,00 h 0,00 h 33 W/m 7,6 km/h (2 Bft) 95,25 %
08.06.2017 07:00 13,4 C 14,2 C 13,3 C 83 % 0 lf 1015,5 hPa 0,0 l/m 0,00 h 0,00 h 78 W/m 11,6 km/h (2 Bft) 95,55 %
08.06.2017 08:00 14,5 C 16,2 C 15,4 C 80 % 0 lf 1015,3 hPa 0,0 l/m 0,17 h 0,00 h 172 W/m 17,4 km/h (3 Bft) 97,19 %
08.06.2017 09:00 17,0 C 22,2 C 18,4 C 73 % 0 lf 1015,1 hPa 0,0 l/m 0,93 h 0,00 h 424 W/m 17,9 km/h (3 Bft) 95,52 %
08.06.2017 10:00 19,6 C 23,7 C 22,5 C 63 % 0 lf 1015,0 hPa 0,0 l/m 0,97 h 0,00 h 471 W/m 24,0 km/h (4 Bft) 97,00 %
08.06.2017 11:00 20,9 C 26,0 C 24,7 C 60 % 0 lf 1014,8 hPa 0,0 l/m 0,93 h 0,00 h 586 W/m 26,6 km/h (4 Bft) 95,69 %
08.06.2017 12:00 21,7 C 26,7 C 25,5 C 59 % 0 lf 1014,6 hPa 0,0 l/m 1,00 h 0,00 h 618 W/m 27,8 km/h (4 Bft) 95,99 %
08.06.2017 13:00 22,4 C 25,7 C 25,7 C 57 % 0 lf 1014,3 hPa 0,0 l/m 0,87 h 0,00 h 551 W/m 24,5 km/h (4 Bft) 97,28 %
08.06.2017 14:00 22,9 C 26,2 C 26,6 C 57 % 0 lf 1013,8 hPa 0,0 l/m 0,87 h 0,00 h 541 W/m 24,5 km/h (4 Bft) 94,96 %
08.06.2017 15:00 24,3 C 28,3 C 30,6 C 55 % 0 lf 1013,2 hPa 0,0 l/m 1,00 h 0,00 h 653 W/m 24,5 km/h (4 Bft) 97,58 %
08.06.2017 16:00 25,3 C 26,9 C 32,0 C 54 % 0 lf 1012,5 hPa 0,0 l/m 1,00 h 0,00 h 678 W/m 28,3 km/h (4 Bft) 94,94 %
08.06.2017 17:00 25,0 C 25,9 C 26,0 C 55 % 0 lf 1011,7 hPa 0,0 l/m 0,80 h 0,00 h 415 W/m 23,6 km/h (4 Bft) 97,22 %
08.06.2017 18:00 24,7 C 25,3 C 24,4 C 56 % 0 lf 1011,3 hPa 0,0 l/m 0,60 h 0,00 h 280 W/m 20,3 km/h (4 Bft) 96,37 %
08.06.2017 19:00 24,5 C 24,8 C 23,1 C 56 % 0 lf 1011,0 hPa 0,0 l/m 1,00 h 0,00 h 230 W/m 22,9 km/h (4 Bft) 95,51 %
08.06.2017 20:00 24,0 C 23,6 C 21,8 C 58 % 0 lf 1011,4 hPa 0,0 l/m 0,17 h 0,00 h 65 W/m 14,9 km/h (3 Bft) 96,07 %
08.06.2017 21:00 22,8 C 21,8 C 19,3 C 61 % 0 lf 1011,5 hPa 0,0 l/m 0,37 h 0,00 h 22 W/m 8,0 km/h (2 Bft) 97,77 %
08.06.2017 22:00 21,4 C 19,5 C 16,4 C 66 % 0 lf 1011,8 hPa 0,0 l/m 0,00 h 0,00 h 9 W/m 4,7 km/h (1 Bft) 94,42 %
08.06.2017 23:00 19,5 C 18,2 C 15,4 C 73 % 0 lf 1011,5 hPa 0,0 l/m 0,00 h 0,00 h 0 W/m 5,8 km/h (2 Bft) 97,51 %
09.06.2017 00:00 18,5 C 18,1 C 16,1 C 77 % 0 lf 1010,9 hPa 0,0 l/m 0,00 h 0,00 h 0 W/m 7,7 km/h (2 Bft) 94,78 %
09.06.2017 01:00 18,0 C 17,7 C 15,7 C 77 % 0 lf 1010,2 hPa 0,0 l/m 0,00 h 0,00 h 0 W/m 8,8 km/h (2 Bft) 96,72 %
09.06.2017 02:00 17,5 C 16,9 C 15,2 C 78 % 0 lf 1010,0 hPa 0,0 l/m 0,00 h 0,00 h 0 W/m 8,5 km/h (2 Bft) 97,87 %
09.06.2017 03:00 16,8 C 16,5 C 14,8 C 79 % 0 lf 1009,7 hPa 0,0 l/m 0,00 h 0,00 h 0 W/m 9,7 km/h (2 Bft) 94,52 %
09.06.2017 04:00 16,4 C 15,9 C 14,2 C 80 % 0 lf 1009,0 hPa 0,0 l/m 0,00 h 0,00 h 0 W/m 9,9 km/h (2 Bft) 96,01 %
09.06.2017 05:00 15,9 C 15,8 C 14,2 C 82 % 0 lf 1008,7 hPa 0,0 l/m 0,00 h 0,00 h 23 W/m 10,3 km/h (2 Bft) 98,72 %
09.06.2017 06:00 16,0 C 16,5 C 15,0 C 82 % 0 lf 1008,8 hPa 0,0 l/m 0,07 h 0,00 h 51 W/m 7,9 km/h (2 Bft) 94,40 %
09.06.2017 07:00 16,6 C 17,6 C 16,4 C 82 % 0 lf 1009,1 hPa 0,0 l/m 0,53 h 0,00 h 120 W/m 8,0 km/h (2 Bft) 96,16 %
09.06.2017 08:00 17,7 C 19,0 C 18,1 C 80 % 0 lf 1008,9 hPa 0,0 l/m 0,17 h 0,07 h 173 W/m 14,0 km/h (3 Bft) 97,22 %
09.06.2017 09:00 18,6 C 19,2 C 18,2 C 77 % 1 lf 1009,3 hPa 0,0 l/m 0,00 h 0,07 h 152 W/m 13,2 km/h (3 Bft) 97,29 %
09.06.2017 10:00 17,5 C 15,8 C 14,7 C 83 % 14 lf 1009,9 hPa 1,4 l/m 0,00 h 1,00 h 118 W/m 12,6 km/h (3 Bft) 93,81 %
09.06.2017 11:00 16,1 C 14,9 C 14,2 C 90 % 15 lf 1010,1 hPa 2,2 l/m 0,00 h 1,00 h 124 W/m 9,2 km/h (2 Bft) 97,01 %
09.06.2017 12:00 15,7 C 15,1 C 14,4 C 94 % 15 lf 1011,0 hPa 1,8 l/m 0,00 h 0,80 h 147 W/m 14,4 km/h (3 Bft) 95,53 %
09.06.2017 13:00 16,1 C 17,3 C 16,0 C 95 % 13 lf 1011,3 hPa 0,0 l/m 0,43 h 0,03 h 365 W/m 18,7 km/h (3 Bft) 97,15 %
09.06.2017 14:00 18,8 C 24,6 C 21,1 C 85 % 0 lf 1011,4 hPa 0,0 l/m 0,33 h 0,00 h 456 W/m 16,7 km/h (3 Bft) 94,30 %
09.06.2017 15:00 20,8 C 25,1 C 26,6 C 69 % 0 lf 1011,8 hPa 0,0 l/m 0,73 h 0,00 h 711 W/m 24,8 km/h (4 Bft) 98,43 %
09.06.2017 16:00 22,6 C 24,6 C 28,1 C 57 % 0 lf 1012,1 hPa 0,2 l/m 1,00 h 0,00 h 744 W/m 21,1 km/h (4 Bft) 94,94 %
09.06.2017 17:00 22,1 C 22,8 C 22,0 C 58 % 0 lf 1012,5 hPa 0,0 l/m 0,28 h 0,00 h 262 W/m 18,7 km/h (3 Bft) 95,83 %
09.06.2017 18:00 20,8 C 21,6 C 20,2 C 62 % 0 lf 1013,1 hPa 0,0 l/m 0,40 h 0,00 h 201 W/m 16,6 km/h (3 Bft) 96,67 %
09.06.2017 19:00 20,4 C 20,8 C 19,0 C 63 % 0 lf 1013,5 hPa 0,0 l/m 0,70 h 0,00 h 209 W/m 13,7 km/h (3 Bft) 96,59 %
09.06.2017 20:00 19,5 C 18,9 C 17,0 C 63 % 0 lf 1014,1 hPa 0,0 l/m 0,37 h 0,00 h 72 W/m 10,2 km/h (2 Bft) 93,24 %
09.06.2017 21:00 18,3 C 16,8 C 14,5 C 66 % 0 lf 1014,5 hPa 0,0 l/m 0,00 h 0,00 h 12 W/m 6,2 km/h (2 Bft) 98,21 %
09.06.2017 22:00 16,5 C 15,0 C 13,0 C 72 % 0 lf 1015,3 hPa 0,0 l/m 0,00 h 0,00 h 2 W/m 5,7 km/h (1 Bft) 94,69 %
09.06.2017 23:00 15,2 C 14,3 C 12,2 C 76 % 0 lf 1015,9 hPa 0,0 l/m 0,00 h 0,00 h 3 W/m 6,7 km/h (2 Bft) 96,87 %
10.06.2017 00:00 14,3 C 13,5 C 11,6 C 78 % 0 lf 1016,5 hPa 0,0 l/m 0,00 h 0,00 h 1 W/m 7,8 km/h (2 Bft) 94,80 %
10.06.2017 01:00 13,5 C 12,8 C 10,9 C 81 % 0 lf 1016,7 hPa 0,0 l/m 0,00 h 0,00 h 0 W/m 8,0 km/h (2 Bft) 96,36 %
10.06.2017 02:00 12,8 C 12,2 C 10,6 C 82 % 0 lf 1017,1 hPa 0,0 l/m 0,00 h 0,00 h 0 W/m 8,9 km/h (2 Bft) 95,21 %
10.06.2017 03:00 12,4 C 12,0 C 10,4 C 83 % 0 lf 1017,4 hPa 0,0 l/m 0,00 h 0,00 h 0 W/m 9,7 km/h (2 Bft) 97,73 %
10.06.2017 04:00 12,0 C 11,6 C 9,8 C 85 % 0 lf 1017,6 hPa 0,0 l/m 0,00 h 0,00 h 0 W/m 9,4 km/h (2 Bft) 94,97 %
10.06.2017 05:00 11,5 C 11,1 C 9,4 C 87 % 0 lf 1017,9 hPa 0,0 l/m 0,30 h 0,00 h 15 W/m 8,1 km/h (2 Bft) 95,80 %
10.06.2017 06:00 11,3 C 11,8 C 9,9 C 88 % 0 lf 1018,3 hPa 0,0 l/m 1,00 h 0,00 h 87 W/m 7,8 km/h (2 Bft) 95,66 %
10.06.2017 07:00 12,2 C 13,5 C 11,5 C 88 % 0 lf 1018,6 hPa 0,0 l/m 1,00 h 0,00 h 223 W/m 9,4 km/h (2 Bft) 98,01 %
10.06.2017 08:00 14,1 C 19,9 C 13,1 C 83 % 0 lf 1019,3 hPa 0,0 l/m 1,00 h 0,00 h 379 W/m 13,3 km/h (3 Bft) 93,73 %
10.06.2017 09:00 17,5 C 27,0 C 15,4 C 71 % 0 lf 1019,8 hPa 0,0 l/m 1,00 h 0,00 h 538 W/m 14,1 km/h (3 Bft) 96,41 %
10.06.2017 10:00 19,7 C 28,0 C 24,3 C 64 % 0 lf 1019,9 hPa 0,0 l/m 1,00 h 0,00 h 678 W/m 16,6 km/h (3 Bft) 95,30 %
10.06.2017 11:00 21,1 C 27,4 C 25,0 C 58 % 0 lf 1019,9 hPa 0,0 l/m 1,00 h 0,00 h 622 W/m 14,6 km/h (3 Bft) 96,25 %
10.06.2017 12:00 22,6 C 30,1 C 27,5 C 56 % 0 lf 1019,8 hPa 0,0 l/m 1,00 h 0,00 h 810 W/m 15,8 km/h (3 Bft) 96,58 %
10.06.2017 13:00 24,1 C 31,0 C 26,8 C 54 % 0 lf 1019,5 hPa 0,0 l/m 1,00 h 0,00 h 788 W/m 19,5 km/h (3 Bft) 95,08 %
10.06.2017 14:00 24,2 C 28,9 C 29,2 C 54 % 0 lf 1019,2 hPa 0,0 l/m 0,93 h 0,00 h 700 W/m 16,9 km/h (3 Bft) 96,80 %
10.06.2017 15:00 25,1 C 29,4 C 32,5 C 52 % 0 lf 1018,8 hPa 0,0 l/m 0,93 h 0,00 h 733 W/m 15,1 km/h (3 Bft) 96,00 %
10.06.2017 16:00 25,7 C 27,5 C 35,1 C 50 % 0 lf 1018,6 hPa 0,0 l/m 0,97 h 0,00 h 754 W/m 15,3 km/h (3 Bft) 95,38 %
10.06.2017 17:00 25,9 C 26,7 C 27,3 C 50 % 0 lf 1018,3 hPa 0,0 l/m 1,00 h 0,00 h 597 W/m 16,4 km/h (3 Bft) 97,03 %
10.06.2017 18:00 25,0 C 25,2 C 23,1 C 51 % 0 lf 1017,9 hPa 0,0 l/m 1,00 h 0,00 h 407 W/m 13,7 km/h (3 Bft) 94,52 %
10.06.2017 19:00 24,4 C 24,4 C 22,2 C 54 % 0 lf 1018,0 hPa 0,0 l/m 1,00 h 0,00 h 232 W/m 10,4 km/h (2 Bft) 95,76 %
10.06.2017 20:00 24,0 C 23,7 C 21,1 C 55 % 0 lf 1017,9 hPa 0,0 l/m 1,00 h 0,00 h 93 W/m 6,9 km/h (2 Bft) 75,08 %
10.06.2017 21:00 23,2 C 21,8 C 18,3 C 59 % 0 lf 1018,0 hPa 0,0 l/m 0,60 h 0,00 h 26 W/m 4,5 km/h (1 Bft) 77,99 %
10.06.2017 22:00 21,4 C 19,7 C 16,5 C 65 % 0 lf 1018,2 hPa 0,0 l/m 0,00 h 0,00 h 9 W/m 5,5 km/h (1 Bft) 92,89 %
10.06.2017 23:00 19,7 C 18,6 C 15,3 C 72 % 0 lf 1018,2 hPa 0,0 l/m 0,00 h 0,00 h 0 W/m 4,4 km/h (1 Bft) 82,45 %
11.06.2017 00:00 18,6 C 18,1 C 15,0 C 75 % 0 lf 1018,0 hPa 0,0 l/m 0,00 h 0,00 h 0 W/m 5,6 km/h (1 Bft) 77,96 %
11.06.2017 01:00 18,1 C 17,6 C 15,0 C 77 % 0 lf 1017,9 hPa 0,0 l/m 0,00 h 0,00 h 0 W/m 5,2 km/h (1 Bft) 76,91 %
11.06.2017 02:00 17,7 C 17,0 C 14,8 C 78 % 0 lf 1017,9 hPa 0,0 l/m 0,00 h 0,00 h 0 W/m 2,1 km/h (1 Bft) 20,13 %
11.06.2017 03:00 16,9 C 16,5 C 14,4 C 81 % 0 lf 1017,6 hPa 0,0 l/m 0,00 h 0,00 h 0 W/m 7,2 km/h (2 Bft) 70,18 %
11.06.2017 04:00 16,2 C 15,8 C 14,1 C 83 % 0 lf 1017,5 hPa 0,0 l/m 0,00 h 0,00 h 0 W/m 8,4 km/h (2 Bft) 95,76 %
11.06.2017 05:00 15,8 C 15,9 C 14,4 C 86 % 0 lf 1017,5 hPa 0,0 l/m 0,00 h 0,00 h 10 W/m 8,4 km/h (2 Bft) 96,84 %
11.06.2017 06:00 16,1 C 16,6 C 15,7 C 86 % 0 lf 1017,1 hPa 0,0 l/m 0,00 h 0,00 h 52 W/m 11,5 km/h (2 Bft) 97,48 %
11.06.2017 07:00 16,8 C 18,3 C 17,4 C 85 % 0 lf 1017,2 hPa 0,0 l/m 0,00 h 0,00 h 105 W/m 9,2 km/h (2 Bft) 91,29 %
11.06.2017 08:00 18,4 C 21,8 C 19,5 C 81 % 0 lf 1017,0 hPa 0,0 l/m 0,47 h 0,00 h 234 W/m 11,0 km/h (2 Bft) 94,74 %
11.06.2017 09:00 21,8 C 27,4 C 22,4 C 72 % 0 lf 1016,7 hPa 0,0 l/m 1,00 h 0,00 h 422 W/m 12,4 km/h (3 Bft) 97,93 %
11.06.2017 10:00 25,0 C 31,4 C 30,3 C 62 % 0 lf 1016,4 hPa 0,0 l/m 1,00 h 0,00 h 608 W/m 12,4 km/h (3 Bft) 96,13 %
11.06.2017 11:00 27,5 C 34,1 C 33,2 C 56 % 0 lf 1015,9 hPa 0,0 l/m 1,00 h 0,00 h 720 W/m 14,2 km/h (3 Bft) 92,68 %
11.06.2017 12:00 28,8 C 35,2 C 33,4 C 52 % 0 lf 1015,2 hPa 0,0 l/m 0,97 h 0,00 h 774 W/m 18,8 km/h (3 Bft) 98,36 %
11.06.2017 13:00 29,6 C 35,9 C 31,6 C 50 % 0 lf 1014,5 hPa 0,0 l/m 0,97 h 0,00 h 858 W/m 20,6 km/h (4 Bft) 95,16 %
11.06.2017 14:00 30,2 C 35,6 C 37,0 C 49 % 0 lf 1013,6 hPa 0,0 l/m 1,00 h 0,00 h 869 W/m 20,1 km/h (4 Bft) 97,22 %
11.06.2017 15:00 30,5 C 34,0 C 36,1 C 49 % 0 lf 1012,7 hPa 0,0 l/m 0,80 h 0,03 h 541 W/m 17,8 km/h (3 Bft) 96,57 %
11.06.2017 16:00 29,8 C 30,7 C 30,7 C 50 % 0 lf 1012,2 hPa 0,0 l/m 0,20 h 0,00 h 237 W/m 15,3 km/h (3 Bft) 94,81 %
11.06.2017 17:00 28,1 C 28,6 C 27,4 C 54 % 0 lf 1012,0 hPa 0,0 l/m 0,00 h 0,13 h 141 W/m 12,1 km/h (2 Bft) 98,08 %
11.06.2017 18:00 27,1 C 27,5 C 26,5 C 58 % 0 lf 1011,5 hPa 0,0 l/m 0,00 h 0,13 h 133 W/m 8,1 km/h (2 Bft) 96,57 %
11.06.2017 19:00 26,5 C 26,5 C 25,5 C 61 % 0 lf 1011,1 hPa 0,0 l/m 0,00 h 0,07 h 90 W/m 6,7 km/h (2 Bft) 96,10 %
11.06.2017 20:00 25,6 C 25,1 C 23,9 C 63 % 0 lf 1010,7 hPa 0,0 l/m 0,00 h 0,03 h 39 W/m 6,0 km/h (2 Bft) 97,51 %
11.06.2017 21:00 24,5 C 22,8 C 20,3 C 68 % 4 lf 1010,9 hPa 0,0 l/m 0,00 h 0,17 h 13 W/m 12,5 km/h (3 Bft) 95,91 %
11.06.2017 22:00 22,6 C 21,8 C 20,1 C 74 % 0 lf 1011,8 hPa 0,0 l/m 0,00 h 0,00 h 0 W/m 18,0 km/h (3 Bft) 96,41 %
11.06.2017 23:00 20,8 C 20,2 C 18,7 C 77 % 0 lf 1012,3 hPa 0,0 l/m 0,00 h 0,00 h 0 W/m 14,4 km/h (3 Bft) 96,76 %
Min-Datum _ 05.06.17 05.06.17 05.06.17 05.06.17 05.06.17 06.06.17 - - - - 05.06.17 11.06.17
_ Min-Zeit 04:08 02:50 02:20 15:00 00:00 10:10 - - - - 00:02 02:05
Minimum _ 9,9 C 8,9 C 8,3 C 43 % 0 lf 997,1 hPa - - - - 0,0 km/h (0 Bft) 0,00 %
Max-Datum _ 11.06.17 11.06.17 11.06.17 09.06.17 06.06.17 10.06.17 09.06.17 08.06.17 06.06.17 10.06.17 06.06.17 05.06.17
_ Max-Zeit 14:52 13:46 14:48 13:28 07:56 10:18 11:04 20:46 08:33 13:02 15:56 01:36
Maximum _ 30,8 C 38,3 C 41,7 C 96 % 15 lf 1020,0 hPa 2,2 l/m 0,07 h 0,05 h 1170 W/m 66,9 km/h
W-SW (8 Bft)
100,00 %
Durchschnitt _ 18,2 C 19,4 C 18,0 C 70 % 1 lf 1011,7 hPa #9,8 l/m #58:05 h #9:42 h 281 W/m 16,9 km/h (3 Bft) 93,60 %
© 2017 W. Hausmann